< < Back
Terminal Aerodrome Forecast


Current Version              Previous Versions:   1  2  3  4  5  6  7  8  9  

Terminal Aerodrome Forecast

086
FTUS42 KTAE 201700
TAFDHN
TAF
KDHN 201721Z 2018/2118 VRB03KT P6SM SCT040 SCT250=



Latest METAR

093
SAUS70 KWBC 210400 RRC
MTRDHN
METAR KDHN 210353Z AUTO 35004KT 10SM CLR 14/12 A3005 RMK AO2 SLP171
T01440122 $


USA.gov is the U.S. government's official web portal to all federal, state and local government web resources and services.